Terminal Aerodrome Forecast
Issued by NWS Upton, NY

Home | Current Version | Previous Version | Text Only | Print | Product List | Glossary On
Versions: 1 2 3 4 5 6 7 8 9 10 11 12 13 14 15 16 17 18 19 20 21 22 23 24 25 26 27 28 29 30 31 32
000
FTUS41 KOKX 281910 AAA
TAFBDR
TAF AMD
KBDR 281910Z 2819/2918 17007KT P6SM SCT040 BKN250
     FM290100 08007KT P6SM SCT040 BKN120
     FM290700 04011KT 6SM -RA BR BKN035 OVC100
     FM291000 03012G21KT 6SM -RA BR BKN030 OVC100
     FM291400 04017G27KT P6SM BKN030 OVC120
     FM291700 04015G25KT P6SM SCT030 OVC150=

USA.gov is the U.S. government's official web portal to all federal, state and local government web resources and services.